Time;durP1;ratioP1;P1;durP2;ratioP2;P2;SDS_P1;SDS_P2;PMS_P1;PMS_P2;Temp;Humidity;BMP_temperature;BMP_pressure;BME280_temperature;BME280_humidity;BME280_pressure;Samples;Min_cycle;Max_cycle;Signal;HPM_P1;HPM_P2
2022/11/10 00:00:50;;;;;;;0.53;0.40;;;;;;;8.81;100.00;100596.88;5064785;28;20454;-60
2022/11/10 00:03:17;;;;;;;0.80;0.60;;;;;;;8.74;100.00;100596.06;5061838;28;20870;-58
2022/11/10 00:05:43;;;;;;;0.70;0.70;;;;;;;8.51;100.00;100591.16;5057320;28;20947;-59
2022/11/10 00:08:11;;;;;;;0.60;0.43;;;;;;;8.42;100.00;100598.38;5060605;28;20524;-58
2022/11/10 00:10:57;;;;;;;0.53;0.40;;;;;;;8.63;100.00;100591.84;5064117;28;20455;-59
2022/11/10 00:13:25;;;;;;;0.97;0.97;;;;;;;8.14;100.00;100608.44;5055417;28;20447;-59
2022/11/10 00:18:37;;;;;;;0.40;0.30;;;;;;;8.09;100.00;100608.50;5057261;28;20479;-59
2022/11/10 00:21:06;;;;;;;3.93;1.13;;;;;;;8.02;100.00;100609.47;5060166;28;20934;-59
2022/11/10 00:23:32;;;;;;;1.27;0.70;;;;;;;8.00;100.00;100617.44;5064297;28;20508;-59
2022/11/10 00:25:59;;;;;;;36.90;1.43;;;;;;;7.87;100.00;100621.13;5060958;28;21317;-58
2022/11/10 00:28:25;;;;;;;1.40;1.30;;;;;;;7.73;100.00;100637.16;5056880;28;20911;-59
2022/11/10 00:30:52;;;;;;;0.67;0.67;;;;;;;7.71;100.00;100636.31;5060964;28;20451;-58
2022/11/10 00:33:18;;;;;;;1.30;0.60;;;;;;;7.80;100.00;100642.38;5063826;28;20457;-58
2022/11/10 00:35:45;;;;;;;0.40;0.33;;;;;;;7.71;100.00;100643.38;5060368;28;20461;-58
2022/11/10 00:38:11;;;;;;;2.03;0.47;;;;;;;7.97;100.00;100637.78;5057180;28;20507;-58
2022/11/10 00:40:38;;;;;;;0.47;0.40;;;;;;;8.09;100.00;100639.41;5060343;28;20951;-58
2022/11/10 00:43:04;;;;;;;0.70;0.70;;;;;;;8.10;100.00;100643.81;5063644;28;20488;-58
2022/11/10 00:45:31;;;;;;;5.87;1.23;;;;;;;8.02;100.00;100644.75;5057670;28;20450;-59
2022/11/10 00:47:57;;;;;;;20.33;0.90;;;;;;;7.91;100.00;100651.06;5056315;28;21057;-58
2022/11/10 00:50:24;;;;;;;0.50;0.50;;;;;;;8.03;100.00;100659.75;5062803;28;20507;-58
2022/11/10 00:52:50;;;;;;;2.40;1.77;;;;;;;7.81;100.00;100666.22;5063260;28;20841;-58
2022/11/10 00:55:17;;;;;;;0.50;0.30;;;;;;;7.71;100.00;100661.91;5057942;28;20446;-58
2022/11/10 00:57:43;;;;;;;1.70;0.73;;;;;;;7.48;100.00;100663.91;5056384;28;20475;-59
2022/11/10 01:00:10;;;;;;;0.50;0.40;;;;;;;7.45;100.00;100682.44;5061968;28;20458;-59
2022/11/10 01:02:36;;;;;;;0.63;0.53;;;;;;;7.27;100.00;100679.09;5063242;28;20453;-59
2022/11/10 01:05:03;;;;;;;0.50;0.50;;;;;;;7.26;100.00;100692.28;5058664;28;20587;-58
2022/11/10 01:07:30;;;;;;;0.53;0.50;;;;;;;7.21;100.00;100686.19;5056402;28;20520;-58
2022/11/10 01:09:57;;;;;;;0.50;0.50;;;;;;;7.12;100.00;100695.06;5061015;28;20454;-58
2022/11/10 01:12:26;;;;;;;0.30;0.20;;;;;;;7.12;100.00;100697.69;5063123;28;20453;-58
2022/11/10 01:14:53;;;;;;;0.50;0.30;;;;;;;7.00;100.00;100703.97;5050608;28;20936;-58
2022/11/10 01:17:19;;;;;;;0.57;0.53;;;;;;;6.89;100.00;100704.94;5062726;28;20474;-59
2022/11/10 01:19:46;;;;;;;2.00;1.07;;;;;;;6.94;100.00;100706.66;5059045;28;20446;-59
2022/11/10 01:22:12;;;;;;;0.30;0.20;;;;;;;6.93;100.00;100706.66;5056481;28;20465;-59
2022/11/10 01:24:38;;;;;;;0.60;0.50;;;;;;;7.00;100.00;100713.69;5059998;28;20451;-58
2022/11/10 01:27:05;;;;;;;14.17;1.33;;;;;;;6.78;100.00;100713.81;5062679;28;20479;-59
2022/11/10 01:29:31;;;;;;;0.40;0.37;;;;;;;6.85;100.00;100719.91;5058875;28;20489;-58
2022/11/10 01:31:58;;;;;;;0.37;0.23;;;;;;;6.81;100.00;100719.06;5055132;28;20453;-59
2022/11/10 01:34:24;;;;;;;0.63;0.63;;;;;;;6.87;100.00;100719.94;5059856;28;20458;-59
2022/11/10 01:36:50;;;;;;;8.10;0.70;;;;;;;6.81;100.00;100724.34;5062735;28;20863;-58
2022/11/10 01:39:17;;;;;;;0.30;0.20;;;;;;;6.83;100.00;100724.34;5058624;28;20939;-58
2022/11/10 01:41:43;;;;;;;0.40;0.20;;;;;;;6.81;100.00;100723.47;5052762;28;21017;-59
2022/11/10 01:44:15;;;;;;;3.10;1.63;;;;;;;6.80;100.00;100734.94;5054473;28;20465;-59
2022/11/10 01:46:41;;;;;;;1.23;0.57;;;;;;;6.65;100.00;100733.25;5056242;28;20483;-58
2022/11/10 01:49:08;;;;;;;0.40;0.30;;;;;;;6.67;100.00;100733.25;5062483;28;20804;-59
2022/11/10 01:51:55;;;;;;;0.30;0.20;;;;;;;6.64;100.00;100728.00;5062601;28;20549;-58
2022/11/10 01:54:26;;;;;;;0.50;0.40;;;;;;;6.54;100.00;100729.78;5059733;28;20929;-58
2022/11/10 01:56:57;;;;;;;0.40;0.30;;;;;;;6.70;100.00;100736.75;5061923;28;20466;-58
2022/11/10 01:59:29;;;;;;;3.80;0.50;;;;;;;6.63;100.00;100735.03;5060273;28;20438;-58
2022/11/10 02:02:12;;;;;;;1.03;0.90;;;;;;;6.51;100.00;100728.06;5055793;28;20453;-59
2022/11/10 02:04:40;;;;;;;1.93;1.13;;;;;;;6.58;100.00;100736.84;5055850;28;20451;-58
2022/11/10 02:07:08;;;;;;;0.50;0.40;;;;;;;6.53;100.00;100738.59;5061864;28;20482;-58
2022/11/10 02:09:34;;;;;;;1.13;0.93;;;;;;;6.55;100.00;100744.75;5062545;28;20494;-58
2022/11/10 02:12:01;;;;;;;0.40;0.30;;;;;;;6.39;100.00;100757.16;5057242;28;20454;-58
2022/11/10 02:14:28;;;;;;;0.60;0.30;;;;;;;6.41;100.00;100754.50;5055656;28;20450;-58
2022/11/10 02:16:55;;;;;;;0.43;0.33;;;;;;;6.49;100.00;100758.00;5060494;28;20474;-59
2022/11/10 02:19:24;;;;;;;0.60;0.50;;;;;;;6.59;100.00;100759.72;5062247;28;20955;-58
2022/11/10 02:21:51;;;;;;;0.30;0.20;;;;;;;6.53;100.00;100755.31;5057670;28;20454;-59
2022/11/10 02:24:17;;;;;;;0.40;0.30;;;;;;;6.49;100.00;100760.63;5055595;28;20454;-57
2022/11/10 02:26:53;;;;;;;0.50;0.30;;;;;;;6.51;100.00;100750.94;5059607;28;20474;-60
2022/11/10 02:29:20;;;;;;;0.60;0.50;;;;;;;6.41;100.00;100752.72;5062153;28;20573;-59
2022/11/10 02:31:47;;;;;;;0.40;0.30;;;;;;;6.30;100.00;100751.00;5059994;28;20454;-57
2022/11/10 02:34:13;;;;;;;0.70;0.47;;;;;;;6.29;100.00;100749.25;5051022;28;20485;-57
2022/11/10 02:36:40;;;;;;;31.17;0.90;;;;;;;6.13;100.00;100748.44;5060334;28;20516;-58
2022/11/10 02:39:07;;;;;;;1.33;0.50;;;;;;;6.15;100.00;100749.31;5055272;28;20450;-58
2022/11/10 02:41:33;;;;;;;3.70;1.40;;;;;;;6.12;100.00;100744.03;5057329;28;20451;-57
2022/11/10 02:43:59;;;;;;;0.50;0.40;;;;;;;6.07;100.00;100754.63;5063726;28;20454;-58
2022/11/10 02:46:26;;;;;;;2.10;1.20;;;;;;;6.13;100.00;100754.59;5059396;28;20939;-57
2022/11/10 02:48:52;;;;;;;1.50;0.50;;;;;;;6.04;100.00;100757.28;5065534;28;20493;-58
2022/11/10 02:51:19;;;;;;;0.60;0.60;;;;;;;6.10;100.00;100770.44;5059643;28;20834;-59
2022/11/10 02:53:45;;;;;;;1.77;0.87;;;;;;;6.20;100.00;100763.38;5058745;28;20466;-58
2022/11/10 02:56:12;;;;;;;0.43;0.40;;;;;;;6.01;100.00;100767.81;5065553;28;20600;-58
2022/11/10 02:58:38;;;;;;;0.50;0.50;;;;;;;6.02;100.00;100774.84;5065604;28;20456;-58
2022/11/10 03:01:05;;;;;;;0.53;0.50;;;;;;;5.81;100.00;100765.19;5059440;28;20457;-58
2022/11/10 03:03:33;;;;;;;0.40;0.30;;;;;;;5.99;100.00;100768.72;5058423;28;20497;-59
2022/11/10 03:05:59;;;;;;;0.60;0.50;;;;;;;6.03;100.00;100773.09;5065137;28;20478;-60
2022/11/10 03:08:25;;;;;;;1.80;1.70;;;;;;;6.09;100.00;100773.09;5065809;28;20489;-58
2022/11/10 03:10:54;;;;;;;0.40;0.30;;;;;;;5.99;100.00;100771.34;5059532;28;20454;-61
2022/11/10 03:13:21;;;;;;;0.60;0.30;;;;;;;6.16;100.00;100780.09;5058538;28;20458;-59
2022/11/10 03:15:48;;;;;;;1.20;1.03;;;;;;;6.03;100.00;100779.28;5064947;28;20923;-58
2022/11/10 03:18:15;;;;;;;1.63;0.50;;;;;;;6.01;100.00;100798.59;5065410;28;20515;-58
2022/11/10 03:20:41;;;;;;;0.50;0.40;;;;;;;5.87;100.00;100806.50;5059767;28;21001;-58
2022/11/10 03:23:08;;;;;;;0.93;0.40;;;;;;;6.01;100.00;100802.13;5058228;28;20485;-58
2022/11/10 03:25:34;;;;;;;0.40;0.20;;;;;;;6.13;100.00;100822.34;5064231;28;20830;-58
2022/11/10 03:28:00;;;;;;;0.30;0.20;;;;;;;5.79;100.00;100829.41;5065262;28;20504;-59
2022/11/10 03:30:27;;;;;;;0.97;0.50;;;;;;;5.84;100.00;100828.50;5059230;28;20493;-59
2022/11/10 03:32:54;;;;;;;0.40;0.30;;;;;;;5.96;100.00;100830.28;5058408;28;20466;-58
2022/11/10 03:35:20;;;;;;;0.40;0.30;;;;;;;5.90;100.00;100820.63;5063743;28;21035;-58
2022/11/10 03:37:47;;;;;;;0.50;0.40;;;;;;;5.95;100.00;100831.16;5064896;28;20477;-59
2022/11/10 03:40:13;;;;;;;0.30;0.20;;;;;;;5.91;100.00;100834.69;5060063;28;20513;-57
2022/11/10 03:42:41;;;;;;;0.80;0.50;;;;;;;5.82;100.00;100842.56;5057729;28;20455;-58
2022/11/10 03:45:09;;;;;;;2.50;2.40;;;;;;;5.80;100.00;100839.06;5061075;28;20450;-58
2022/11/10 03:47:35;;;;;;;0.40;0.30;;;;;;;5.80;100.00;100837.31;5060457;28;21003;-58
2022/11/10 03:50:02;;;;;;;1.70;0.50;;;;;;;5.85;100.00;100838.16;5062005;28;20486;-58
2022/11/10 03:52:29;;;;;;;1.13;1.03;;;;;;;5.78;100.00;100836.44;5064391;28;20524;-58
2022/11/10 03:54:55;;;;;;;0.50;0.40;;;;;;;5.74;100.00;100841.69;5060186;28;20839;-58
2022/11/10 03:57:28;;;;;;;0.50;0.40;;;;;;;5.49;100.00;100843.47;5057357;28;20476;-58
2022/11/10 03:59:55;;;;;;;0.40;0.30;;;;;;;5.53;100.00;100854.00;5061289;28;20447;-59
2022/11/10 04:02:21;;;;;;;0.50;0.23;;;;;;;5.48;100.00;100853.13;5064593;28;20948;-58
2022/11/10 04:10:17;;;;;;;0.43;0.40;;;;;;;5.59;100.00;100864.53;5058290;28;20498;-58
2022/11/10 04:15:40;;;;;;;1.13;0.57;;;;;;;5.54;100.00;100875.97;5065090;28;20451;-57
2022/11/10 04:18:20;;;;;;;0.50;0.30;;;;;;;5.42;100.00;100871.56;5064187;28;20445;-57
2022/11/10 04:20:47;;;;;;;0.40;0.30;;;;;;;5.52;100.00;100878.59;5063320;28;20782;-58
2022/11/10 04:23:27;;;;;;;0.30;0.30;;;;;;;5.50;100.00;100882.13;5065968;28;20457;-57
2022/11/10 04:28:51;;;;;;;0.40;0.30;;;;;;;5.55;100.00;100886.50;5058138;28;20489;-58
2022/11/10 04:31:19;;;;;;;0.97;0.97;;;;;;;5.47;100.00;100890.88;5057226;28;20876;-57
2022/11/10 04:33:46;;;;;;;1.17;0.87;;;;;;;5.98;100.00;100891.84;5062842;28;20500;-57
2022/11/10 04:36:16;;;;;;;2.47;0.60;;;;;;;5.62;100.00;100897.97;5063778;28;20486;-57
2022/11/10 04:38:42;;;;;;;0.70;0.70;;;;;;;5.51;100.00;100895.31;5059329;28;20864;-57
2022/11/10 04:41:09;;;;;;;0.40;0.30;;;;;;;5.48;100.00;100897.94;5055316;28;21007;-57
2022/11/10 04:43:37;;;;;;;0.73;0.73;;;;;;;5.54;100.00;100890.03;5060328;28;20450;-57
2022/11/10 04:46:04;;;;;;;1.07;0.40;;;;;;;5.41;100.00;100885.63;5056906;28;20469;-57
2022/11/10 04:48:33;;;;;;;1.23;1.20;;;;;;;5.47;100.00;100896.16;5062182;28;20979;-56
2022/11/10 04:51:06;;;;;;;0.40;0.30;;;;;;;5.43;100.00;100896.16;5055570;28;20461;-57
2022/11/10 04:53:32;;;;;;;1.00;1.00;;;;;;;5.46;100.00;100901.44;5059476;28;20466;-57
2022/11/10 04:55:59;;;;;;;0.33;0.23;;;;;;;5.66;100.00;100910.28;5063711;28;20481;-57
2022/11/10 04:58:25;;;;;;;0.40;0.30;;;;;;;5.71;100.00;100916.41;5061462;28;20912;-57
2022/11/10 05:00:51;;;;;;;2.40;1.00;;;;;;;5.62;100.00;100913.78;5055564;28;20449;-57
2022/11/10 05:03:18;;;;;;;0.50;0.40;;;;;;;5.70;100.00;100917.28;5059241;28;20779;-57
2022/11/10 05:05:45;;;;;;;0.60;0.43;;;;;;;5.57;100.00;100911.13;5063208;28;20462;-57
2022/11/10 05:08:11;;;;;;;1.07;0.43;;;;;;;5.57;100.00;100919.03;5061253;28;20450;-57
2022/11/10 05:10:38;;;;;;;0.50;0.47;;;;;;;5.55;100.00;100922.53;5056310;28;20494;-58
2022/11/10 05:13:04;;;;;;;1.03;0.57;;;;;;;5.64;100.00;100934.00;5058778;28;20451;-58
2022/11/10 05:15:32;;;;;;;3.57;0.80;;;;;;;5.64;100.00;100944.56;5063730;28;20443;-57
2022/11/10 05:17:58;;;;;;;0.50;0.50;;;;;;;5.68;100.00;100948.06;5061852;28;20561;-57
2022/11/10 05:20:26;;;;;;;0.40;0.30;;;;;;;5.73;100.00;100955.97;5056179;28;20445;-58
2022/11/10 05:25:40;;;;;;;0.50;0.30;;;;;;;5.90;100.00;100963.09;5058246;28;20450;-57
2022/11/10 05:28:09;;;;;;;5.53;1.23;;;;;;;6.08;100.00;100971.91;5055992;28;20786;-57
2022/11/10 05:30:36;;;;;;;0.40;0.30;;;;;;;6.08;100.00;100975.41;5060555;28;20859;-57
2022/11/10 05:33:03;;;;;;;1.80;0.67;;;;;;;6.88;100.00;100972.72;5061398;28;20870;-58
2022/11/10 05:35:30;;;;;;;1.57;1.00;;;;;;;6.46;100.00;100980.72;5058307;28;21034;-58
2022/11/10 05:37:56;;;;;;;0.80;0.80;;;;;;;6.39;100.00;100978.94;5055783;28;20543;-57
2022/11/10 05:40:28;;;;;;;3.50;0.63;;;;;;;6.43;100.00;100982.44;5058879;28;20948;-57
2022/11/10 05:42:54;;;;;;;0.87;0.50;;;;;;;6.36;100.00;100984.22;5053277;28;20450;-57
2022/11/10 05:45:23;;;;;;;0.50;0.47;;;;;;;6.30;100.00;100973.66;5058465;28;20504;-57
2022/11/10 05:47:50;;;;;;;0.60;0.50;;;;;;;6.23;100.00;100982.47;5060802;28;20488;-57
2022/11/10 05:50:18;;;;;;;0.67;0.40;;;;;;;6.13;100.00;100984.22;5057427;28;21022;-58
2022/11/10 05:52:47;;;;;;;13.87;2.07;;;;;;;6.07;100.00;100985.97;5062464;28;20541;-57
2022/11/10 05:55:18;;;;;;;0.70;0.30;;;;;;;6.11;100.00;100995.66;5060775;28;20450;-58
2022/11/10 05:57:46;;;;;;;0.60;0.60;;;;;;;6.01;100.00;101009.69;5042543;28;20893;-57
2022/11/10 06:00:15;;;;;;;0.60;0.50;;;;;;;6.01;100.00;101029.06;5055541;28;20446;-57
2022/11/10 06:02:43;;;;;;;0.40;0.40;;;;;;;6.11;100.00;101033.47;5061248;28;20451;-57
2022/11/10 06:05:10;;;;;;;1.90;1.07;;;;;;;6.01;100.00;101030.81;5062601;28;20531;-57
2022/11/10 06:07:37;;;;;;;5.73;5.27;;;;;;;5.98;100.00;101036.09;5057140;28;20474;-58
2022/11/10 06:10:04;;;;;;;0.60;0.60;;;;;;;5.78;100.00;101036.91;5055303;28;20486;-57
2022/11/10 06:12:31;;;;;;;8.33;1.87;;;;;;;5.88;100.00;101049.22;5060080;28;20452;-57
2022/11/10 06:14:58;;;;;;;0.50;0.50;;;;;;;5.89;100.00;101056.28;5060839;28;20454;-57
2022/11/10 06:17:24;;;;;;;0.40;0.30;;;;;;;6.02;100.00;101072.16;5057134;28;20485;-57
2022/11/10 06:19:51;;;;;;;0.50;0.40;;;;;;;6.04;100.00;101075.72;5054898;28;20956;-56
2022/11/10 06:22:18;;;;;;;0.77;0.63;;;;;;;5.98;100.00;101071.28;5060134;28;20528;-57
2022/11/10 06:24:45;;;;;;;0.70;0.70;;;;;;;5.94;100.00;101083.59;5062625;28;20846;-58
2022/11/10 06:27:11;;;;;;;0.40;0.40;;;;;;;6.03;100.00;101095.03;5057875;28;20875;-57
2022/11/10 06:29:38;;;;;;;1.63;1.53;;;;;;;5.86;100.00;101100.22;5054977;28;20495;-57
2022/11/10 06:32:04;;;;;;;1.30;1.30;;;;;;;5.67;100.00;101095.75;5059500;28;21275;-57
2022/11/10 06:34:31;;;;;;;7.87;2.20;;;;;;;5.73;100.00;101098.41;5062115;28;20504;-57
2022/11/10 06:36:57;;;;;;;1.60;0.40;;;;;;;5.73;100.00;101098.41;5058250;28;20473;-57
2022/11/10 06:39:23;;;;;;;0.53;0.53;;;;;;;5.72;100.00;101097.53;5055391;28;20531;-57
2022/11/10 06:41:50;;;;;;;0.67;0.67;;;;;;;5.77;100.00;101113.41;5059088;28;20450;-57
2022/11/10 06:44:16;;;;;;;0.60;0.53;;;;;;;5.59;100.00;101109.78;5061634;28;20534;-57
2022/11/10 06:46:42;;;;;;;1.27;1.17;;;;;;;5.65;100.00;101107.19;5055601;28;20477;-57
2022/11/10 06:49:09;;;;;;;1.90;0.77;;;;;;;5.73;100.00;101108.97;5061670;28;20461;-58
2022/11/10 06:51:35;;;;;;;0.40;0.30;;;;;;;5.88;100.00;101115.16;5058041;28;20943;-57
2022/11/10 06:54:02;;;;;;;0.63;0.53;;;;;;;5.91;100.00;101119.63;5054675;28;20540;-58
2022/11/10 06:56:28;;;;;;;6.03;1.27;;;;;;;5.90;100.00;101123.16;5058774;28;21055;-58
2022/11/10 06:58:54;;;;;;;0.57;0.40;;;;;;;5.84;100.00;101128.34;5061697;28;20450;-57
2022/11/10 07:01:25;;;;;;;1.40;1.30;;;;;;;5.86;100.00;101129.25;5057492;28;20926;-57
2022/11/10 07:03:52;;;;;;;0.37;0.30;;;;;;;5.75;100.00;101138.84;5054691;28;21012;-58
2022/11/10 07:06:38;;;;;;;3.20;1.23;;;;;;;5.75;100.00;101154.69;5055921;28;20536;-57
2022/11/10 07:09:05;;;;;;;1.83;0.70;;;;;;;5.85;100.00;101148.59;5062009;28;20450;-57
2022/11/10 07:11:31;;;;;;;0.93;0.93;;;;;;;5.88;100.00;101151.22;5060788;28;20490;-57
2022/11/10 07:13:58;;;;;;;0.47;0.43;;;;;;;5.99;100.00;101156.59;5054764;28;20449;-57
2022/11/10 07:16:24;;;;;;;5.30;1.10;;;;;;;6.06;100.00;101145.19;5054960;28;20474;-57
2022/11/10 07:18:50;;;;;;;0.70;0.70;;;;;;;6.15;100.00;101164.56;5061352;28;20504;-57
2022/11/10 07:21:17;;;;;;;1.20;1.20;;;;;;;6.22;100.00;101165.47;5061464;28;20442;-57
2022/11/10 07:23:45;;;;;;;1.03;0.90;;;;;;;6.23;100.00;101162.84;5053127;28;20459;-57
2022/11/10 07:26:13;;;;;;;1.00;1.00;;;;;;;6.31;100.00;101168.16;5061375;28;20480;-57
2022/11/10 07:28:39;;;;;;;0.67;0.60;;;;;;;6.38;100.00;101179.59;5055673;28;20454;-57
2022/11/10 07:31:05;;;;;;;0.70;0.70;;;;;;;6.45;100.00;101166.44;5056319;28;20494;-57
2022/11/10 07:33:32;;;;;;;2.03;0.50;;;;;;;6.45;100.00;101176.13;5064133;28;20451;-57
2022/11/10 07:36:02;;;;;;;0.70;0.70;;;;;;;6.66;100.00;101176.16;5064819;28;20474;-58
2022/11/10 07:38:29;;;;;;;2.00;1.43;;;;;;;6.75;100.00;101184.09;5059405;28;20523;-64
2022/11/10 07:40:55;;;;;;;0.77;0.77;;;;;;;6.87;100.00;101179.72;5056750;28;20864;-58
2022/11/10 07:43:23;;;;;;;0.90;0.60;;;;;;;7.05;100.00;101196.44;5059163;28;20911;-57
2022/11/10 07:45:51;;;;;;;0.80;0.80;;;;;;;7.17;100.00;101197.34;5057690;28;20462;-57
2022/11/10 07:48:18;;;;;;;1.00;0.80;;;;;;;7.32;100.00;101208.78;5064503;28;20461;-57
2022/11/10 07:50:45;;;;;;;1.73;1.17;;;;;;;7.39;100.00;101207.88;5057776;28;20523;-58
2022/11/10 07:53:14;;;;;;;0.90;0.80;;;;;;;7.56;100.00;101215.81;5062326;28;20470;-57
2022/11/10 07:55:43;;;;;;;0.50;0.50;;;;;;;7.57;100.00;101220.22;5064380;28;20449;-57
2022/11/10 07:58:14;;;;;;;0.90;0.80;;;;;;;7.59;100.00;101221.09;5060662;28;20515;-57
2022/11/10 08:00:41;;;;;;;1.13;1.03;;;;;;;7.53;100.00;101213.16;5058232;28;20442;-57
2022/11/10 08:03:14;;;;;;;1.27;1.17;;;;;;;7.68;100.00;101225.50;5060352;28;20450;-58
2022/11/10 08:05:40;;;;;;;2.53;1.30;;;;;;;7.84;100.00;101231.66;5064845;28;20512;-57
2022/11/10 08:08:07;;;;;;;3.13;2.93;;;;;;;7.99;100.00;101236.91;5062467;28;20442;-58
2022/11/10 08:10:34;;;;;;;3.30;1.43;;;;;;;8.04;100.00;101240.41;5057216;28;21007;-57
2022/11/10 08:13:04;;;;;;;2.67;2.47;;;;;;;8.10;100.00;101247.47;5059490;28;20913;-57
2022/11/10 08:15:31;;;;;;;2.53;2.33;;;;;;;8.16;100.00;101247.44;5064481;28;20473;-58
2022/11/10 08:18:11;;;;;;;1.77;1.60;;;;;;;8.29;100.00;101247.38;5063594;28;20454;-58
2022/11/10 08:20:38;;;;;;;0.93;0.90;;;;;;;8.42;100.00;101252.69;5044157;28;20442;-58
2022/11/10 08:23:05;;;;;;;4.83;2.87;;;;;;;8.49;100.00;101247.31;5056932;28;20469;-57
2022/11/10 08:25:34;;;;;;;1.03;1.03;;;;;;;8.59;100.00;101254.34;5063299;28;20454;-57
2022/11/10 08:28:06;;;;;;;7.20;1.40;;;;;;;8.79;100.00;101261.34;5063712;28;20450;-57
2022/11/10 08:30:34;;;;;;;13.83;3.03;;;;;;;8.88;100.00;101255.97;5058806;28;21018;-57
2022/11/10 08:33:03;;;;;;;18.60;1.80;;;;;;;8.96;100.00;101259.47;5057120;28;20461;-58
2022/11/10 08:35:33;;;;;;;2.93;1.13;;;;;;;9.05;100.00;101245.28;5061953;28;20454;-58
2022/11/10 08:38:14;;;;;;;1.03;1.00;;;;;;;9.24;100.00;101253.97;5063608;28;20475;-58
2022/11/10 08:40:42;;;;;;;0.90;0.90;;;;;;;9.41;100.00;101265.31;5060508;28;20499;-57
2022/11/10 08:43:10;;;;;;;1.43;1.00;;;;;;;9.59;100.00;101266.94;5056464;28;20449;-58
2022/11/10 08:45:39;;;;;;;6.40;3.37;;;;;;;9.84;100.00;101265.81;5057315;28;20455;-58
2022/11/10 08:48:14;;;;;;;1.53;1.43;;;;;;;9.82;100.00;101264.06;5050720;28;20522;-58
2022/11/10 08:50:41;;;;;;;2.83;2.00;;;;;;;9.89;100.00;101269.31;5056628;28;20910;-57
2022/11/10 08:53:12;;;;;;;1.30;1.20;;;;;;;10.06;100.00;101269.13;5062209;28;20837;-57
2022/11/10 08:55:40;;;;;;;1.57;1.37;;;;;;;10.05;100.00;101278.88;5063417;28;20450;-58
2022/11/10 08:58:11;;;;;;;24.60;3.10;;;;;;;10.21;100.00;101284.03;5058582;28;20951;-58
2022/11/10 09:00:37;;;;;;;1.30;1.20;;;;;;;10.27;100.00;101290.16;5056359;28;20450;-57
2022/11/10 09:03:12;;;;;;;2.57;1.40;;;;;;;10.31;100.00;101299.88;5060880;28;20500;-58
2022/11/10 09:05:39;;;;;;;5.53;2.37;;;;;;;10.38;100.00;101300.69;5063159;28;20453;-58
2022/11/10 09:08:06;;;;;;;5.80;1.70;;;;;;;10.45;100.00;101297.06;5060162;28;20461;-58
2022/11/10 09:10:35;;;;;;;2.07;1.87;;;;;;;10.88;100.00;101307.16;5056302;28;20493;-58
2022/11/10 09:13:03;;;;;;;2.23;1.67;;;;;;;10.94;100.00;101307.06;5059942;28;20469;-57
2022/11/10 09:15:31;;;;;;;2.37;2.27;;;;;;;10.86;100.00;101311.63;5062941;28;21014;-58
2022/11/10 09:17:58;;;;;;;2.03;1.83;;;;;;;10.98;100.00;101315.00;5060990;28;20478;-58
2022/11/10 09:20:26;;;;;;;6.50;3.23;;;;;;;11.02;100.00;101325.59;5056720;28;20446;-58
2022/11/10 09:22:53;;;;;;;5.00;1.90;;;;;;;11.08;100.00;101320.19;5057515;28;20451;-58
2022/11/10 09:25:20;;;;;;;4.90;2.33;;;;;;;11.26;100.00;101326.13;5063100;28;20454;-57
2022/11/10 09:27:47;;;;;;;0.90;0.80;;;;;;;11.35;100.00;101318.91;5061693;28;20523;-58
2022/11/10 09:30:13;;;;;;;7.47;1.40;;;;;;;11.34;100.00;101328.66;5055553;28;20489;-58
2022/11/10 09:32:45;;;;;;;1.37;0.90;;;;;;;11.54;100.00;101336.38;5056705;28;20839;-58
2022/11/10 09:35:12;;;;;;;1.27;1.20;;;;;;;11.65;100.00;101336.16;5062995;28;20493;-58
2022/11/10 09:37:39;;;;;;;7.60;1.83;;;;;;;11.67;100.00;101339.72;5062742;28;20522;-58
2022/11/10 09:40:10;;;;;;;6.90;1.00;;;;;;;11.63;100.00;101337.97;5056243;28;20476;-58
2022/11/10 09:42:40;;;;;;;1.40;1.07;;;;;;;11.61;100.00;101334.47;5055775;28;20443;-58
2022/11/10 09:45:18;;;;;;;0.77;0.77;;;;;;;11.71;100.00;101338.75;5060193;28;20455;-58
2022/11/10 09:47:56;;;;;;;1.20;1.10;;;;;;;11.65;100.00;101337.09;5059347;28;20473;-58
2022/11/10 09:50:51;;;;;;;7.63;2.60;;;;;;;11.84;100.00;101345.66;5056797;28;20490;-58
2022/11/10 09:53:26;;;;;;;0.80;0.80;;;;;;;12.00;100.00;101349.81;5042160;28;20885;-57
2022/11/10 09:56:02;;;;;;;1.90;1.17;;;;;;;12.16;100.00;101356.63;5062287;28;20451;-58
2022/11/10 09:58:34;;;;;;;2.10;0.60;;;;;;;12.23;100.00;101360.09;5059803;28;21001;-58
2022/11/10 10:01:26;;;;;;;3.13;1.47;;;;;;;12.41;100.00;101366.84;5055635;28;20450;-58
2022/11/10 10:04:27;;;;;;;1.13;0.97;;;;;;;12.69;100.00;101357.41;5056165;28;20904;-58
2022/11/10 10:07:15;;;;;;;12.97;1.77;;;;;;;12.82;100.00;101368.72;5043668;28;20518;-58
2022/11/10 10:10:03;;;;;;;5.33;1.47;;;;;;;12.68;100.00;101361.00;5057987;28;20538;-58
2022/11/10 10:12:51;;;;;;;4.07;1.00;;;;;;;12.93;100.00;101364.03;5043768;28;20522;-58
2022/11/10 10:15:28;;;;;;;5.10;1.60;;;;;;;12.85;100.00;101365.09;5055319;28;20454;-58
2022/11/10 10:18:20;;;;;;;4.63;0.90;;;;;;;12.86;100.00;101364.19;5057026;28;20467;-57
2022/11/10 10:21:02;;;;;;;8.23;1.13;;;;;;;12.75;100.00;101370.66;5046559;28;20454;-58
2022/11/10 10:23:35;;;;;;;2.77;2.03;;;;;;;12.73;100.00;101375.09;5055519;28;20554;-58
2022/11/10 10:26:36;;;;;;;0.97;0.97;;;;;;;13.02;100.00;101360.31;5055544;28;20551;-58
2022/11/10 10:29:17;;;;;;;3.13;1.77;;;;;;;13.13;100.00;101368.06;5058098;28;20508;-58
2022/11/10 10:31:47;;;;;;;1.47;1.37;;;;;;;13.04;100.00;101364.69;5061999;28;20494;-58
2022/11/10 10:34:16;;;;;;;13.07;2.00;;;;;;;12.94;100.00;101372.94;5061937;28;20458;-58
2022/11/10 10:36:44;;;;;;;1.63;0.90;;;;;;;13.26;100.00;101364.25;5041828;28;20871;-58
2022/11/10 10:39:15;;;;;;;2.93;1.27;;;;;;;13.32;100.00;101359.66;5055199;28;20454;-58
2022/11/10 10:41:44;;;;;;;1.03;1.03;;;;;;;13.40;100.00;101359.47;5068683;28;20446;-58
2022/11/10 10:44:17;;;;;;;14.70;2.50;;;;;;;13.58;100.00;101358.19;5054908;28;20512;-58
2022/11/10 10:47:04;;;;;;;7.13;3.13;;;;;;;13.36;100.00;101362.25;5059891;28;20858;-58
2022/11/10 10:49:35;;;;;;;2.40;0.90;;;;;;;13.69;100.00;101360.56;5061989;28;20446;-58
2022/11/10 10:52:09;;;;;;;0.70;0.70;;;;;;;13.57;98.99;101356.44;5060316;28;20493;-58
2022/11/10 10:54:37;;;;;;;0.67;0.67;;;;;;;13.66;100.00;101358.84;5062292;28;20451;-58
2022/11/10 10:57:28;;;;;;;9.40;2.00;;;;;;;13.54;99.20;101356.47;5061949;28;20882;-58
2022/11/10 11:00:20;;;;;;;2.07;1.97;;;;;;;13.99;98.81;101356.28;5058557;28;20451;-58
2022/11/10 11:03:02;;;;;;;1.47;1.00;;;;;;;13.74;99.09;101361.34;5042411;28;21042;-58
2022/11/10 11:05:31;;;;;;;3.67;2.10;;;;;;;13.83;98.97;101361.13;5057769;28;20461;-58
2022/11/10 11:07:59;;;;;;;3.70;1.07;;;;;;;13.94;98.98;101357.25;5062583;28;20987;-58
2022/11/10 11:10:29;;;;;;;8.87;0.97;;;;;;;13.91;98.08;101359.13;5065551;28;20512;-58
2022/11/10 11:13:22;;;;;;;1.47;1.37;;;;;;;13.95;98.92;101355.47;5062325;28;20458;-58
2022/11/10 11:15:59;;;;;;;2.27;1.20;;;;;;;14.05;97.76;101361.47;5046973;28;20461;-57
2022/11/10 11:18:28;;;;;;;2.00;1.20;;;;;;;14.20;97.67;101366.41;5058816;28;20508;-58
2022/11/10 11:21:04;;;;;;;1.23;1.13;;;;;;;13.98;97.11;101370.53;5062675;28;20450;-57
2022/11/10 11:23:50;;;;;;;6.37;0.77;;;;;;;13.75;99.07;101373.81;5064855;28;20446;-58
2022/11/10 11:26:34;;;;;;;6.63;1.63;;;;;;;13.92;98.48;101371.59;5065195;28;20445;-58
2022/11/10 11:29:19;;;;;;;3.30;1.13;;;;;;;13.82;97.92;101375.41;5062367;28;20495;-58
2022/11/10 11:31:55;;;;;;;1.63;1.53;;;;;;;13.87;98.49;101376.19;5064845;28;20560;-58
2022/11/10 11:34:33;;;;;;;1.37;1.27;;;;;;;13.83;98.75;101379.81;5063455;28;20460;-57
2022/11/10 11:37:31;;;;;;;13.47;2.10;;;;;;;13.94;97.68;101372.41;5063484;28;20466;-58
2022/11/10 11:40:03;;;;;;;1.20;1.10;;;;;;;14.15;97.92;101379.91;5063695;28;20430;-58
2022/11/10 11:42:54;;;;;;;2.03;1.47;;;;;;;14.12;98.09;101379.13;5052528;28;20446;-58
2022/11/10 11:45:35;;;;;;;1.40;1.30;;;;;;;14.52;97.00;101379.81;5060620;28;20450;-59
2022/11/10 11:48:18;;;;;;;3.13;1.53;;;;;;;14.38;96.12;101381.97;5063489;28;20458;-58
2022/11/10 11:51:05;;;;;;;1.43;1.13;;;;;;;14.51;95.67;101378.06;5057690;28;20947;-59
2022/11/10 11:53:53;;;;;;;7.60;2.27;;;;;;;14.49;95.93;101387.06;5059705;28;20462;-58